createdAt,value
2023-04-08T00:01:27.205Z,9.67
2023-04-08T00:05:28.826Z,9.67
2023-04-08T00:09:30.573Z,9.67
2023-04-08T00:13:32.207Z,9.68
2023-04-08T00:17:33.737Z,9.74
2023-04-08T00:21:35.345Z,9.75
2023-04-08T00:25:36.916Z,9.78
2023-04-08T00:29:38.675Z,9.83
2023-04-08T00:33:40.268Z,9.81
2023-04-08T00:37:42.261Z,9.83
2023-04-08T00:41:43.763Z,9.81
2023-04-08T00:45:45.838Z,9.85
2023-04-08T00:49:48.497Z,9.86
2023-04-08T00:53:50.294Z,9.86
2023-04-08T00:57:51.888Z,9.92
2023-04-08T01:02:08.546Z,9.96
2023-04-08T01:06:51.386Z,9.99
2023-04-08T01:10:56.758Z,9.99
2023-04-08T01:15:05.536Z,10.01
2023-04-08T01:19:08.863Z,10.02
2023-04-08T01:23:20.903Z,10.09
2023-04-08T01:27:22.631Z,10.10
2023-04-08T01:31:25.306Z,10.10
2023-04-08T01:35:27.697Z,10.10
2023-04-08T01:39:30.514Z,10.11
2023-04-08T01:43:33.842Z,10.09
2023-04-08T01:47:37.075Z,10.09
2023-04-08T01:51:39.694Z,10.11
2023-04-08T01:55:42.996Z,10.10
2023-04-08T01:59:50.606Z,10.07
2023-04-08T02:03:55.577Z,10.04
2023-04-08T02:07:58.663Z,10.01
2023-04-08T02:12:01.673Z,9.96
2023-04-08T02:16:11.482Z,9.93
2023-04-08T02:20:18.669Z,9.88
2023-04-08T02:24:21.379Z,9.86
2023-04-08T02:28:24.852Z,9.80
2023-04-08T02:32:27.922Z,9.75
2023-04-08T02:36:32.951Z,9.74
2023-04-08T02:40:37.261Z,9.67
2023-04-08T02:44:39.191Z,9.67
2023-04-08T02:48:40.752Z,9.62
2023-04-08T02:52:43.783Z,9.60
2023-04-08T02:56:45.577Z,9.58
2023-04-08T03:00:47.179Z,9.49
2023-04-08T03:04:48.856Z,9.48
2023-04-08T03:08:50.663Z,9.45
2023-04-08T03:12:52.493Z,9.45
2023-04-08T03:16:54.050Z,9.44
2023-04-08T03:20:55.891Z,9.40
2023-04-08T03:24:57.463Z,9.35
2023-04-08T03:28:59.009Z,9.31
2023-04-08T03:33:01.534Z,9.27
2023-04-08T03:37:03.287Z,9.30
2023-04-08T03:41:04.854Z,9.27
2023-04-08T03:45:07.019Z,9.31
2023-04-08T03:49:08.570Z,9.32
2023-04-08T03:53:12.164Z,9.32
2023-04-08T03:57:13.734Z,9.32
2023-04-08T04:01:15.522Z,9.37
2023-04-08T04:05:17.143Z,9.38
2023-04-08T04:09:18.780Z,9.38
2023-04-08T04:13:20.618Z,9.40
2023-04-08T04:17:22.168Z,9.40
2023-04-08T04:21:23.657Z,9.38
2023-04-08T04:25:25.289Z,9.41
2023-04-08T04:29:26.869Z,9.41
2023-04-08T04:33:28.460Z,9.41
2023-04-08T04:37:30.145Z,9.37
2023-04-08T04:41:31.878Z,9.37
2023-04-08T04:45:33.427Z,9.35
2023-04-08T04:49:35.045Z,9.35
2023-04-08T04:53:36.517Z,9.37
2023-04-08T04:57:38.257Z,9.38
2023-04-08T05:01:41.048Z,9.37
2023-04-08T05:05:42.799Z,9.40
2023-04-08T05:09:44.353Z,9.40
2023-04-08T05:13:46.113Z,9.38
2023-04-08T05:17:47.693Z,9.37
2023-04-08T05:22:07.127Z,9.38
2023-04-08T05:26:08.932Z,9.41
2023-04-08T05:30:11.181Z,9.44
2023-04-08T05:34:12.701Z,9.45
2023-04-08T05:38:14.273Z,9.50
2023-04-08T05:42:15.915Z,9.52
2023-04-08T05:46:17.582Z,9.56
2023-04-08T05:50:19.294Z,9.56
2023-04-08T05:54:21.058Z,9.59
2023-04-08T05:58:22.581Z,9.63
2023-04-08T06:02:24.338Z,9.67
2023-04-08T06:06:26.244Z,9.70
2023-04-08T06:10:27.798Z,9.70
2023-04-08T06:14:29.325Z,9.74
2023-04-08T06:18:31.003Z,9.78
2023-04-08T06:22:32.729Z,9.95
2023-04-08T06:26:34.275Z,9.99
2023-04-08T06:30:36.170Z,9.98
2023-04-08T06:34:38.143Z,9.95
2023-04-08T06:38:39.706Z,9.95
2023-04-08T06:42:43.060Z,9.98
2023-04-08T06:46:56.198Z,9.95
2023-04-08T06:50:58.786Z,9.98
2023-04-08T06:55:00.333Z,10.06
2023-04-08T06:59:01.856Z,10.13
2023-04-08T07:03:03.491Z,10.25
2023-04-08T07:07:05.121Z,10.29
2023-04-08T07:11:06.829Z,10.31
2023-04-08T07:15:09.090Z,10.32
2023-04-08T07:19:10.685Z,10.32
2023-04-08T07:23:12.212Z,10.36
2023-04-08T07:27:13.739Z,10.28
2023-04-08T07:31:17.365Z,10.22
2023-04-08T07:35:24.219Z,10.20
2023-04-08T07:39:25.886Z,10.20
2023-04-08T07:43:27.773Z,10.25
2023-04-08T07:47:29.380Z,10.38
2023-04-08T07:51:30.994Z,10.52
2023-04-08T07:55:35.822Z,10.73
2023-04-08T07:59:37.568Z,10.98
2023-04-08T08:03:39.604Z,11.09
2023-04-08T08:07:41.344Z,11.12
2023-04-08T08:11:42.973Z,11.23
2023-04-08T08:15:44.558Z,11.27
2023-04-08T08:19:46.162Z,11.42
2023-04-08T08:23:47.919Z,11.57
2023-04-08T08:27:49.605Z,11.72
2023-04-08T08:31:51.283Z,11.85
2023-04-08T08:35:52.945Z,11.90
2023-04-08T08:39:54.519Z,11.98
2023-04-08T08:43:57.126Z,12.12
2023-04-08T08:47:59.823Z,12.07
2023-04-08T08:52:01.439Z,12.07
2023-04-08T09:00:08.978Z,12.22
2023-04-08T09:04:14.059Z,12.26
2023-04-08T09:08:27.224Z,12.41
2023-04-08T09:12:29.044Z,12.49
2023-04-08T09:16:31.099Z,12.55
2023-04-08T09:20:32.962Z,12.62
2023-04-08T09:24:35.695Z,12.70
2023-04-08T09:28:37.790Z,12.63
2023-04-08T09:33:08.732Z,12.79
2023-04-08T09:37:10.422Z,12.80
2023-04-08T09:41:16.157Z,12.91
2023-04-08T09:45:18.528Z,12.94
2023-04-08T09:49:22.862Z,12.92
2023-04-08T09:53:34.261Z,13.04
2023-04-08T09:57:51.233Z,13.19
2023-04-08T10:01:54.649Z,13.62
2023-04-08T10:05:57.503Z,13.65
2023-04-08T10:09:59.262Z,13.63
2023-04-08T10:14:01.416Z,13.75
2023-04-08T10:18:03.133Z,13.79
2023-04-08T10:22:24.714Z,13.84
2023-04-08T10:26:40.484Z,13.80
2023-04-08T10:30:44.952Z,13.86
2023-04-08T10:34:53.610Z,13.75
2023-04-08T10:38:55.269Z,13.62
2023-04-08T10:43:00.552Z,13.47
2023-04-08T10:47:02.178Z,13.41
2023-04-08T10:51:05.264Z,13.25
2023-04-08T10:55:07.385Z,13.44
2023-04-08T10:59:08.948Z,13.38
2023-04-08T11:03:13.089Z,13.24
2023-04-08T11:07:16.092Z,13.21
2023-04-08T11:11:19.138Z,13.21
2023-04-08T11:15:24.793Z,13.39
2023-04-08T11:19:26.421Z,13.43
2023-04-08T11:23:28.001Z,13.39
2023-04-08T11:27:29.793Z,13.46
2023-04-08T11:31:32.630Z,13.46
2023-04-08T11:35:34.692Z,13.61
2023-04-08T11:39:43.161Z,13.75
2023-04-08T11:43:55.996Z,13.71
2023-04-08T11:47:57.717Z,13.48
2023-04-08T11:52:00.244Z,13.51
2023-04-08T11:56:23.987Z,13.69
2023-04-08T12:00:27.933Z,13.65
2023-04-08T12:04:30.264Z,13.75
2023-04-08T12:08:32.052Z,13.91
2023-04-08T12:12:33.585Z,14.20
2023-04-08T12:16:35.372Z,14.11
2023-04-08T12:20:37.125Z,14.26
2023-04-08T12:24:38.761Z,14.45
2023-04-08T12:28:40.586Z,14.44
2023-04-08T12:32:42.764Z,14.75
2023-04-08T12:36:44.868Z,14.97
2023-04-08T12:40:47.724Z,15.41
2023-04-08T12:44:50.897Z,15.43
2023-04-08T12:49:03.296Z,15.56
2023-04-08T12:53:05.691Z,15.55
2023-04-08T12:57:07.233Z,15.68
2023-04-08T13:01:08.935Z,15.70
2023-04-08T13:05:10.992Z,15.81
2023-04-08T13:09:12.519Z,15.76
2023-04-08T13:13:14.312Z,15.78
2023-04-08T13:17:16.369Z,15.71
2023-04-08T13:21:17.993Z,15.80
2023-04-08T13:25:20.283Z,15.86
2023-04-08T13:29:21.856Z,15.85
2023-04-08T13:33:23.444Z,15.68
2023-04-08T13:37:25.072Z,15.60
2023-04-08T13:41:28.212Z,15.74
2023-04-08T13:45:29.849Z,15.85
2023-04-08T13:49:31.592Z,15.93
2023-04-08T13:53:33.144Z,16.29
2023-04-08T13:57:34.829Z,16.47
2023-04-08T14:01:36.562Z,16.52
2023-04-08T14:05:38.235Z,16.87
2023-04-08T14:09:39.854Z,17.25
2023-04-08T14:13:41.413Z,16.84
2023-04-08T14:17:43.389Z,16.30
2023-04-08T14:21:45.000Z,16.17
2023-04-08T14:25:46.541Z,16.48
2023-04-08T14:29:48.178Z,16.78
2023-04-08T14:33:49.727Z,16.84
2023-04-08T14:37:51.322Z,16.91
2023-04-08T14:41:52.839Z,16.91
2023-04-08T14:45:54.477Z,16.88
2023-04-08T14:49:56.060Z,16.67
2023-04-08T14:53:57.653Z,16.26
2023-04-08T14:58:00.912Z,15.96
2023-04-08T15:02:02.885Z,15.95
2023-04-08T15:06:04.900Z,15.88
2023-04-08T15:10:07.147Z,15.88
2023-04-08T15:14:08.721Z,15.89
2023-04-08T15:18:10.587Z,15.67
2023-04-08T15:22:12.903Z,15.38
2023-04-08T15:26:14.503Z,15.19
2023-04-08T15:30:17.088Z,15.05
2023-04-08T15:34:18.636Z,15.03
2023-04-08T15:38:20.428Z,15.01
2023-04-08T15:42:22.674Z,14.87
2023-04-08T15:46:24.358Z,14.80
2023-04-08T15:50:28.873Z,14.69
2023-04-08T15:54:31.898Z,14.56
2023-04-08T15:58:33.545Z,14.48
2023-04-08T16:02:35.283Z,14.46
2023-04-08T16:06:37.014Z,14.42
2023-04-08T16:10:38.586Z,14.45
2023-04-08T16:14:40.725Z,14.39
2023-04-08T16:18:44.435Z,14.35
2023-04-08T16:22:47.646Z,14.24
2023-04-08T16:26:49.275Z,14.24
2023-04-08T16:30:50.955Z,14.39
2023-04-08T16:34:52.535Z,14.46
2023-04-08T16:38:54.647Z,14.56
2023-04-08T16:42:56.371Z,14.56
2023-04-08T16:46:57.962Z,14.61
2023-04-08T16:50:59.522Z,14.64
2023-04-08T16:55:01.224Z,14.66
2023-04-08T16:59:02.924Z,14.69
2023-04-08T17:03:04.698Z,14.63
2023-04-08T17:07:06.671Z,14.59
2023-04-08T17:11:13.296Z,14.52
2023-04-08T17:15:15.400Z,14.46
2023-04-08T17:19:17.847Z,14.42
2023-04-08T17:23:19.359Z,14.34
2023-04-08T17:27:21.194Z,14.23
2023-04-08T17:31:22.867Z,14.17
2023-04-08T17:35:24.527Z,14.11
2023-04-08T17:39:26.213Z,14.09
2023-04-08T17:43:27.809Z,14.08
2023-04-08T17:47:29.451Z,14.01
2023-04-08T17:51:31.953Z,13.93
2023-04-08T17:55:33.608Z,13.80
2023-04-08T17:59:35.363Z,13.69
2023-04-08T18:03:36.985Z,13.61
2023-04-08T18:07:38.717Z,13.51
2023-04-08T18:11:40.372Z,13.51
2023-04-08T18:15:42.039Z,13.46
2023-04-08T18:19:43.607Z,13.38
2023-04-08T18:23:48.911Z,13.38
2023-04-08T18:27:50.692Z,13.36
2023-04-08T18:31:52.369Z,13.36
2023-04-08T18:35:54.527Z,13.38
2023-04-08T18:39:56.146Z,13.38
2023-04-08T18:43:58.099Z,13.32
2023-04-08T18:47:59.740Z,13.29
2023-04-08T18:52:03.349Z,13.24
2023-04-08T18:56:05.710Z,13.22
2023-04-08T19:00:08.662Z,13.24
2023-04-08T19:04:10.942Z,13.22
2023-04-08T19:08:12.517Z,13.17
2023-04-08T19:12:14.342Z,13.17
2023-04-08T19:16:15.974Z,13.17
2023-04-08T19:20:17.650Z,13.16
2023-04-08T19:24:20.774Z,13.16
2023-04-08T19:28:22.348Z,13.17
2023-04-08T19:32:24.000Z,13.16
2023-04-08T19:36:26.120Z,13.14
2023-04-08T19:40:27.719Z,13.12
2023-04-08T19:44:29.285Z,13.10
2023-04-08T19:48:32.627Z,13.09
2023-04-08T19:52:34.174Z,13.09
2023-04-08T19:56:37.027Z,13.09
2023-04-08T20:00:39.290Z,13.07
2023-04-08T20:04:40.867Z,13.06
2023-04-08T20:08:42.483Z,13.06
2023-04-08T20:12:44.177Z,13.04
2023-04-08T20:16:46.285Z,13.01
2023-04-08T20:20:48.970Z,12.98
2023-04-08T20:24:50.863Z,12.99
2023-04-08T20:28:52.523Z,12.99
2023-04-08T20:32:54.848Z,13.01
2023-04-08T20:36:57.266Z,13.03
2023-04-08T20:40:58.826Z,13.01
2023-04-08T20:45:00.417Z,12.99
2023-04-08T20:49:03.496Z,12.95
2023-04-08T20:53:05.090Z,12.91
2023-04-08T20:57:06.736Z,12.89
2023-04-08T21:01:08.538Z,12.79
2023-04-08T21:05:10.430Z,12.76
2023-04-08T21:09:14.847Z,12.73
2023-04-08T21:13:16.541Z,12.71
2023-04-08T21:17:18.209Z,12.69
2023-04-08T21:21:19.878Z,12.66
2023-04-08T21:25:21.488Z,12.63
2023-04-08T21:29:23.104Z,12.61
2023-04-08T21:33:24.658Z,12.63
2023-04-08T21:37:26.538Z,12.62
2023-04-08T21:41:30.285Z,12.54
2023-04-08T21:45:32.329Z,12.44
2023-04-08T21:49:33.941Z,12.43
2023-04-08T21:53:35.556Z,12.36
2023-04-08T21:57:37.809Z,12.31
2023-04-08T22:01:39.847Z,12.29
2023-04-08T22:05:41.882Z,12.30
2023-04-08T22:09:43.495Z,12.23
2023-04-08T22:13:45.331Z,12.21
2023-04-08T22:17:47.092Z,12.18
2023-04-08T22:21:50.947Z,12.19
2023-04-08T22:25:52.500Z,12.18
2023-04-08T22:29:54.083Z,12.15
2023-04-08T22:33:56.230Z,12.12
2023-04-08T22:37:57.814Z,12.04
2023-04-08T22:41:59.409Z,12.03
2023-04-08T22:46:01.041Z,12.00
2023-04-08T22:50:02.630Z,12.04
2023-04-08T22:54:04.199Z,12.03
2023-04-08T22:58:05.924Z,12.04
2023-04-08T23:02:07.584Z,12.04
2023-04-08T23:06:09.458Z,12.04
2023-04-08T23:10:11.298Z,12.04
2023-04-08T23:14:13.001Z,12.03
2023-04-08T23:18:14.550Z,11.98
2023-04-08T23:22:16.090Z,12.00
2023-04-08T23:26:18.777Z,11.98
2023-04-08T23:30:20.515Z,11.97
2023-04-08T23:34:22.050Z,11.96
2023-04-08T23:38:23.559Z,11.90
2023-04-08T23:42:27.213Z,11.85
2023-04-08T23:46:29.017Z,11.84
2023-04-08T23:50:30.598Z,11.82
2023-04-08T23:54:33.739Z,11.79
2023-04-08T23:58:35.407Z,11.79
